Time;durP1;ratioP1;P1;durP2;ratioP2;P2;SDS_P1;SDS_P2;PMS_P1;PMS_P2;Temp;Humidity;BMP_temperature;BMP_pressure;BME280_temperature;BME280_humidity;BME280_pressure;Samples;Min_cycle;Max_cycle;Signal;HPM_P1;HPM_P2
2022/03/16 00:00:22;;;;;;;1.40;0.80;;;21.80;42.10;;;;;;5002545;28;20045;-63
2022/03/16 00:02:49;;;;;;;1.30;0.90;;;21.80;42.00;;;;;;5002302;28;20037;-62
2022/03/16 00:05:15;;;;;;;1.67;1.00;;;21.80;42.00;;;;;;5001657;28;20095;-63
2022/03/16 00:07:41;;;;;;;1.85;0.95;;;21.80;42.60;;;;;;5004085;28;20507;-63
2022/03/16 00:10:08;;;;;;;1.70;0.98;;;21.80;42.10;;;;;;5000584;28;20121;-63
2022/03/16 00:12:38;;;;;;;1.63;1.00;;;21.80;42.10;;;;;;5003076;28;20493;-63
2022/03/16 00:15:04;;;;;;;3.08;0.95;;;21.70;42.00;;;;;;5002363;28;20033;-62
2022/03/16 00:17:30;;;;;;;1.60;0.90;;;21.70;42.00;;;;;;5002167;28;20029;-62
2022/03/16 00:19:56;;;;;;;1.83;0.88;;;21.70;42.00;;;;;;5002016;28;20034;-64
2022/03/16 00:22:21;;;;;;;1.38;1.00;;;21.70;42.60;;;;;;5002135;28;20076;-63
2022/03/16 00:24:47;;;;;;;1.77;1.00;;;21.70;42.00;;;;;;4999955;28;20140;-60
2022/03/16 00:27:13;;;;;;;1.95;1.10;;;21.70;42.00;;;;;;5000411;28;20034;-60
2022/03/16 00:29:38;;;;;;;2.58;1.00;;;21.70;42.00;;;;;;5003089;28;20022;-63
2022/03/16 00:32:05;;;;;;;2.03;0.93;;;21.70;42.00;;;;;;5002437;28;20038;-63
2022/03/16 00:34:31;;;;;;;1.50;0.85;;;21.70;42.00;;;;;;4999552;28;20033;-60
2022/03/16 00:36:57;;;;;;;1.60;0.82;;;21.70;42.50;;;;;;5003663;28;20488;-63
2022/03/16 00:39:22;;;;;;;1.80;1.00;;;21.70;42.00;;;;;;5001771;28;20034;-62
2022/03/16 00:41:48;;;;;;;1.77;1.00;;;21.70;42.00;;;;;;4999856;28;20417;-62
2022/03/16 00:44:14;;;;;;;1.52;0.90;;;21.70;42.10;;;;;;4998093;28;20123;-60
2022/03/16 00:46:40;;;;;;;1.85;0.90;;;21.70;42.00;;;;;;5003109;28;20030;-63
2022/03/16 00:49:06;;;;;;;1.85;0.90;;;21.60;42.00;;;;;;5000847;28;20742;-63
2022/03/16 00:51:32;;;;;;;2.13;1.00;;;21.60;42.00;;;;;;5004949;28;20168;-62
2022/03/16 00:53:58;;;;;;;1.55;0.95;;;21.70;42.10;;;;;;5000067;28;20104;-61
2022/03/16 00:56:23;;;;;;;2.13;1.13;;;21.70;42.10;;;;;;4999338;28;20029;-62
2022/03/16 00:58:49;;;;;;;1.67;0.93;;;21.60;42.50;;;;;;4997468;28;20046;-63
2022/03/16 01:01:15;;;;;;;1.40;1.00;;;21.60;42.00;;;;;;5003564;28;20161;-63
2022/03/16 01:03:41;;;;;;;1.92;1.10;;;21.60;42.00;;;;;;4998845;28;20029;-63
2022/03/16 01:06:12;;;;;;;1.50;0.90;;;21.60;42.00;;;;;;5003160;28;20383;-63
2022/03/16 01:08:42;;;;;;;1.80;0.90;;;21.60;42.00;;;;;;5001929;28;20037;-61
2022/03/16 01:11:08;;;;;;;1.75;1.00;;;21.60;42.00;;;;;;5001341;28;20034;-62
2022/03/16 01:13:34;;;;;;;1.50;1.00;;;21.60;42.00;;;;;;5001237;28;20061;-62
2022/03/16 01:16:00;;;;;;;1.25;0.80;;;21.60;42.00;;;;;;5003029;28;20069;-65
2022/03/16 01:18:25;;;;;;;1.13;0.90;;;21.60;42.00;;;;;;5000206;28;20493;-65
2022/03/16 01:20:51;;;;;;;1.05;0.80;;;21.60;42.00;;;;;;5003839;28;20120;-64
2022/03/16 01:23:16;;;;;;;1.85;1.00;;;21.60;42.00;;;;;;5001089;28;20034;-60
2022/03/16 01:25:42;;;;;;;1.73;1.00;;;21.60;42.00;;;;;;5001760;28;20057;-63
2022/03/16 01:28:08;;;;;;;1.52;0.80;;;21.60;42.00;;;;;;4999455;28;20076;-65
2022/03/16 01:30:33;;;;;;;2.05;0.90;;;21.60;42.00;;;;;;5002574;28;20491;-64
2022/03/16 01:32:59;;;;;;;1.80;1.00;;;21.50;42.00;;;;;;5001528;28;20108;-63
2022/03/16 01:35:25;;;;;;;1.42;0.90;;;21.60;42.60;;;;;;5003237;28;20411;-61
2022/03/16 01:37:50;;;;;;;1.10;0.90;;;21.50;42.00;;;;;;5000964;28;20041;-65
2022/03/16 01:40:16;;;;;;;1.35;0.90;;;21.50;42.00;;;;;;4999165;28;20100;-60
2022/03/16 01:42:41;;;;;;;1.73;0.90;;;21.50;42.00;;;;;;5004103;28;20119;-63
2022/03/16 01:45:09;;;;;;;1.48;0.90;;;21.50;42.00;;;;;;5002980;28;20026;-59
2022/03/16 01:47:35;;;;;;;2.05;1.10;;;21.50;42.00;;;;;;5004856;28;20455;-65
2022/03/16 01:50:00;;;;;;;1.88;0.98;;;21.50;42.00;;;;;;5004871;28;20385;-63
2022/03/16 01:52:27;;;;;;;1.27;0.73;;;21.50;42.00;;;;;;5005211;28;20030;-65
2022/03/16 01:54:54;;;;;;;0.82;0.70;;;21.50;42.00;;;;;;5004937;28;20056;-64
2022/03/16 01:57:20;;;;;;;1.23;0.90;;;21.50;42.00;;;;;;5004245;28;20110;-63
2022/03/16 01:59:47;;;;;;;1.98;0.90;;;21.50;42.00;;;;;;5007459;28;20037;-65
2022/03/16 02:02:13;;;;;;;1.40;1.00;;;21.50;42.10;;;;;;5005607;28;20041;-59
2022/03/16 02:04:39;;;;;;;1.17;0.85;;;21.50;42.10;;;;;;5004707;28;20389;-63
2022/03/16 02:07:05;;;;;;;1.65;0.90;;;21.50;42.10;;;;;;5005507;28;20038;-60
2022/03/16 02:09:32;;;;;;;0.90;0.77;;;21.50;42.10;;;;;;5005189;28;20026;-64
2022/03/16 02:11:58;;;;;;;0.85;0.73;;;21.50;42.10;;;;;;5003887;28;20034;-63
2022/03/16 02:14:23;;;;;;;1.52;0.90;;;21.50;42.10;;;;;;5004794;28;20134;-60
2022/03/16 02:16:49;;;;;;;1.17;0.80;;;21.50;42.10;;;;;;5006488;28;20037;-62
2022/03/16 02:19:15;;;;;;;1.10;0.75;;;21.40;42.00;;;;;;5004785;28;20761;-63
2022/03/16 02:21:44;;;;;;;1.50;0.88;;;21.40;42.00;;;;;;5014358;28;20041;-63
2022/03/16 02:24:10;;;;;;;1.45;0.88;;;21.40;42.00;;;;;;5018058;28;20171;-61
2022/03/16 02:26:36;;;;;;;1.80;0.80;;;21.50;42.10;;;;;;5001620;28;20080;-63
2022/03/16 02:29:02;;;;;;;1.58;0.90;;;21.40;42.10;;;;;;5002342;28;20061;-60
2022/03/16 02:31:28;;;;;;;1.75;0.90;;;21.40;42.00;;;;;;5005327;28;20037;-63
2022/03/16 02:33:54;;;;;;;0.90;0.70;;;21.40;42.10;;;;;;5005300;28;20034;-63
2022/03/16 02:36:20;;;;;;;1.77;0.90;;;21.40;42.10;;;;;;5020169;28;20398;-63
2022/03/16 02:38:46;;;;;;;1.38;0.80;;;21.40;42.10;;;;;;5003472;28;20117;-64
2022/03/16 02:41:12;;;;;;;1.05;0.73;;;21.40;42.10;;;;;;5005687;28;20120;-65
2022/03/16 02:43:39;;;;;;;1.23;0.80;;;21.40;42.10;;;;;;5002455;28;20022;-65
2022/03/16 02:46:05;;;;;;;1.65;0.70;;;21.40;42.10;;;;;;5004041;28;20077;-62
2022/03/16 02:48:31;;;;;;;1.73;0.80;;;21.40;42.10;;;;;;5003576;28;20549;-63
2022/03/16 02:50:57;;;;;;;1.33;0.90;;;21.40;42.10;;;;;;5004224;28;20060;-60
2022/03/16 02:53:23;;;;;;;1.63;0.98;;;21.40;42.10;;;;;;5004298;28;20386;-63
2022/03/16 02:55:48;;;;;;;1.42;0.80;;;21.40;42.10;;;;;;5006140;28;20100;-62
2022/03/16 02:58:16;;;;;;;0.95;0.80;;;21.40;42.10;;;;;;5001888;28;20034;-63
2022/03/16 03:00:42;;;;;;;1.60;0.90;;;21.40;42.10;;;;;;5002031;28;20052;-63
2022/03/16 03:03:08;;;;;;;1.27;0.70;;;21.40;42.10;;;;;;5004456;28;20044;-62
2022/03/16 03:05:34;;;;;;;1.70;0.75;;;21.30;42.10;;;;;;5004405;28;20033;-61
2022/03/16 03:07:59;;;;;;;1.42;0.80;;;21.40;42.10;;;;;;5002921;28;20083;-62
2022/03/16 03:10:26;;;;;;;1.20;0.80;;;21.40;42.20;;;;;;5004091;28;20038;-63
2022/03/16 03:12:52;;;;;;;1.33;0.90;;;21.30;42.10;;;;;;5002719;28;20482;-63
2022/03/16 03:15:18;;;;;;;1.17;0.70;;;21.30;42.10;;;;;;5006505;28;20041;-61
2022/03/16 03:17:43;;;;;;;1.75;0.80;;;21.30;42.10;;;;;;4997209;28;20033;-64
2022/03/16 03:20:10;;;;;;;1.38;0.80;;;21.30;42.10;;;;;;5005983;28;20030;-65
2022/03/16 03:22:36;;;;;;;1.20;0.90;;;21.30;42.10;;;;;;5003079;28;20509;-64
2022/03/16 03:25:03;;;;;;;2.00;0.80;;;21.30;42.10;;;;;;4998843;28;20029;-63
2022/03/16 03:27:30;;;;;;;0.93;0.70;;;21.30;42.10;;;;;;5001780;28;20060;-64
2022/03/16 03:29:56;;;;;;;1.42;0.90;;;21.30;42.20;;;;;;5002812;28;20038;-64
2022/03/16 03:32:22;;;;;;;1.20;0.80;;;21.30;42.10;;;;;;5002064;28;20402;-61
2022/03/16 03:34:51;;;;;;;1.17;0.77;;;21.30;42.50;;;;;;5011414;28;20104;-65
2022/03/16 03:37:18;;;;;;;1.80;0.98;;;21.30;42.20;;;;;;5003945;28;20531;-65
2022/03/16 03:39:44;;;;;;;1.50;0.80;;;21.30;42.10;;;;;;5003743;28;20034;-64
2022/03/16 03:42:11;;;;;;;1.02;0.80;;;21.30;42.10;;;;;;5003187;28;20037;-65
2022/03/16 03:44:37;;;;;;;1.02;0.70;;;21.30;42.20;;;;;;5003730;28;20034;-62
2022/03/16 03:47:08;;;;;;;0.90;0.70;;;21.30;42.10;;;;;;5002889;28;20045;-61
2022/03/16 03:49:38;;;;;;;1.30;0.90;;;21.30;42.20;;;;;;5002393;28;20064;-64
2022/03/16 03:52:05;;;;;;;1.10;0.80;;;21.30;42.20;;;;;;5001472;28;20438;-65
2022/03/16 03:54:30;;;;;;;0.88;0.80;;;21.30;42.20;;;;;;5004601;28;20332;-62
2022/03/16 03:56:56;;;;;;;1.38;0.90;;;21.30;42.20;;;;;;5002161;28;20065;-65
2022/03/16 03:59:23;;;;;;;1.05;0.80;;;21.20;42.20;;;;;;5001369;28;20045;-64
2022/03/16 04:01:49;;;;;;;0.65;0.60;;;21.20;42.20;;;;;;5003747;28;20038;-62
2022/03/16 04:04:15;;;;;;;1.20;0.80;;;21.20;42.10;;;;;;5018226;28;20030;-65
2022/03/16 04:06:40;;;;;;;0.98;0.70;;;21.20;42.10;;;;;;5000355;28;20024;-64
2022/03/16 04:09:06;;;;;;;0.98;0.77;;;21.20;42.10;;;;;;4994171;28;20116;-61
2022/03/16 04:11:32;;;;;;;1.10;0.70;;;21.20;42.20;;;;;;5003495;28;20438;-64
2022/03/16 04:13:58;;;;;;;1.00;0.80;;;21.20;42.10;;;;;;4999720;28;20185;-64
2022/03/16 04:16:24;;;;;;;1.38;0.60;;;21.20;42.20;;;;;;5001700;28;20226;-64
2022/03/16 04:18:50;;;;;;;1.17;0.77;;;21.20;42.20;;;;;;5003041;28;20038;-65
2022/03/16 04:21:15;;;;;;;0.80;0.68;;;21.20;42.10;;;;;;5003084;28;20038;-65
2022/03/16 04:23:41;;;;;;;0.75;0.68;;;21.20;42.10;;;;;;5007089;28;20400;-64
2022/03/16 04:26:07;;;;;;;1.02;0.90;;;21.20;42.10;;;;;;4998640;28;20037;-65
2022/03/16 04:28:33;;;;;;;1.02;0.70;;;21.20;42.20;;;;;;5000739;28;20022;-63
2022/03/16 04:31:00;;;;;;;1.20;0.80;;;21.20;42.20;;;;;;4996498;28;20041;-66
2022/03/16 04:33:26;;;;;;;1.58;0.70;;;21.20;42.20;;;;;;5015399;28;20066;-62
2022/03/16 04:35:52;;;;;;;1.15;0.80;;;21.20;42.20;;;;;;4998496;28;20034;-64
2022/03/16 04:38:18;;;;;;;1.05;0.70;;;21.20;42.20;;;;;;5001922;28;20305;-63
2022/03/16 04:40:43;;;;;;;1.38;0.82;;;21.20;42.20;;;;;;5001849;28;20030;-61
2022/03/16 04:43:09;;;;;;;0.63;0.60;;;21.20;42.20;;;;;;5001732;28;20080;-64
2022/03/16 04:45:38;;;;;;;1.13;0.77;;;21.20;42.20;;;;;;5002225;28;20029;-64
2022/03/16 04:48:08;;;;;;;1.40;0.80;;;21.20;42.20;;;;;;4999740;28;20573;-65
2022/03/16 04:50:38;;;;;;;1.45;0.77;;;21.20;42.20;;;;;;5004859;28;20121;-64
2022/03/16 04:53:04;;;;;;;0.68;0.68;;;21.20;42.20;;;;;;5001261;28;20065;-66
2022/03/16 04:55:29;;;;;;;1.15;0.73;;;21.20;42.20;;;;;;4999374;28;20132;-64
2022/03/16 04:57:55;;;;;;;1.13;0.70;;;21.20;42.20;;;;;;4998642;28;20116;-65
2022/03/16 05:00:22;;;;;;;1.10;0.73;;;21.10;42.10;;;;;;5001328;28;20189;-65
2022/03/16 05:02:47;;;;;;;1.08;0.80;;;21.10;42.10;;;;;;4999316;28;20530;-63
2022/03/16 05:05:13;;;;;;;1.15;0.65;;;21.10;42.10;;;;;;5000787;28;20124;-65
2022/03/16 05:07:40;;;;;;;1.00;0.70;;;21.20;42.20;;;;;;5001334;28;20034;-65
2022/03/16 05:10:06;;;;;;;0.90;0.70;;;21.10;42.20;;;;;;4999409;28;20026;-66
2022/03/16 05:12:39;;;;;;;1.35;0.80;;;21.20;42.20;;;;;;5000969;28;20018;-64
2022/03/16 05:15:12;;;;;;;1.45;0.80;;;21.10;42.70;;;;;;5002068;28;20129;-66
2022/03/16 05:17:38;;;;;;;1.60;0.80;;;21.10;42.20;;;;;;5000965;28;20038;-65
2022/03/16 05:20:05;;;;;;;1.30;0.82;;;21.10;42.20;;;;;;5004175;28;20376;-64
2022/03/16 05:22:31;;;;;;;1.00;0.70;;;21.10;42.20;;;;;;5006438;28;20513;-64
2022/03/16 05:24:57;;;;;;;1.58;0.70;;;21.10;42.20;;;;;;5002808;28;20046;-65
2022/03/16 05:27:22;;;;;;;1.63;0.75;;;21.10;42.20;;;;;;5004492;28;20034;-64
2022/03/16 05:29:48;;;;;;;1.00;0.77;;;21.10;42.20;;;;;;5002033;28;20034;-62
2022/03/16 05:32:14;;;;;;;1.27;0.73;;;21.10;42.30;;;;;;5004798;28;20410;-64
2022/03/16 05:34:40;;;;;;;0.95;0.70;;;21.10;42.30;;;;;;5003690;28;20095;-64
2022/03/16 05:37:06;;;;;;;1.17;0.80;;;21.10;42.30;;;;;;5007774;28;20034;-64
2022/03/16 05:39:33;;;;;;;1.58;0.80;;;21.10;42.30;;;;;;5003617;28;20068;-63
2022/03/16 05:42:00;;;;;;;1.67;0.80;;;21.10;42.80;;;;;;5004828;28;20044;-63
2022/03/16 05:44:26;;;;;;;1.30;1.00;;;21.10;42.30;;;;;;5006289;28;20030;-63
2022/03/16 05:46:52;;;;;;;1.50;0.82;;;21.10;42.30;;;;;;5003967;28;20081;-66
2022/03/16 05:49:18;;;;;;;1.40;0.80;;;21.10;42.30;;;;;;5003889;28;20185;-66
2022/03/16 05:51:44;;;;;;;1.20;1.00;;;21.10;42.30;;;;;;5003397;28;20448;-59
2022/03/16 05:54:09;;;;;;;1.15;0.70;;;21.10;42.30;;;;;;5001087;28;20224;-64
2022/03/16 05:56:35;;;;;;;1.00;0.80;;;21.10;42.30;;;;;;5002701;28;20036;-60
2022/03/16 05:59:01;;;;;;;1.00;0.70;;;21.10;42.40;;;;;;5005824;28;20034;-64
2022/03/16 06:01:26;;;;;;;1.00;0.70;;;21.10;42.30;;;;;;5003544;28;20073;-59
2022/03/16 06:03:53;;;;;;;1.10;0.80;;;21.10;42.40;;;;;;5002521;28;20461;-64
2022/03/16 06:06:20;;;;;;;1.02;0.70;;;21.00;42.30;;;;;;5005419;28;20029;-64
2022/03/16 06:08:45;;;;;;;1.40;0.80;;;21.10;42.40;;;;;;5004929;28;20034;-65
2022/03/16 06:11:11;;;;;;;1.20;0.80;;;21.00;42.40;;;;;;5005730;28;20049;-65
2022/03/16 06:13:37;;;;;;;1.05;0.70;;;21.10;42.50;;;;;;5002233;28;20073;-61
2022/03/16 06:16:03;;;;;;;1.00;0.70;;;21.10;42.40;;;;;;5006007;28;20354;-62
2022/03/16 06:18:28;;;;;;;1.33;0.80;;;21.10;42.40;;;;;;5004586;28;20141;-62
2022/03/16 06:20:54;;;;;;;1.50;0.80;;;21.10;42.40;;;;;;5004567;28;20151;-59
2022/03/16 06:23:20;;;;;;;0.90;0.70;;;21.00;42.40;;;;;;5000731;28;20467;-62
2022/03/16 06:25:45;;;;;;;1.73;0.80;;;21.00;42.40;;;;;;4998784;28;20363;-62
2022/03/16 06:28:11;;;;;;;2.10;0.80;;;21.00;42.40;;;;;;5001342;28;20029;-60
2022/03/16 06:30:36;;;;;;;1.60;0.82;;;21.00;42.40;;;;;;5001382;28;20050;-64
2022/03/16 06:33:02;;;;;;;1.30;0.80;;;21.00;42.40;;;;;;4995362;28;20083;-60
2022/03/16 06:35:28;;;;;;;1.80;0.90;;;21.00;42.40;;;;;;5006059;28;20038;-62
2022/03/16 06:37:53;;;;;;;1.15;0.80;;;21.10;42.40;;;;;;5006550;28;20053;-62
2022/03/16 06:40:19;;;;;;;1.73;0.90;;;21.00;42.40;;;;;;4999259;28;20037;-61
2022/03/16 06:43:05;;;;;;;2.28;0.85;;;21.00;42.50;;;;;;5003834;28;20478;-62
2022/03/16 06:45:31;;;;;;;2.35;1.13;;;21.00;42.60;;;;;;5002780;28;20042;-59
2022/03/16 06:47:58;;;;;;;1.35;0.90;;;21.00;42.60;;;;;;5004731;28;20404;-59
2022/03/16 06:50:25;;;;;;;2.25;1.00;;;21.10;42.60;;;;;;5003102;28;20033;-62
2022/03/16 06:52:52;;;;;;;3.03;1.10;;;21.00;42.60;;;;;;5005358;28;20038;-62
2022/03/16 06:55:18;;;;;;;2.65;1.20;;;21.00;42.80;;;;;;5011887;28;20061;-60
2022/03/16 06:57:44;;;;;;;3.20;1.40;;;21.00;43.40;;;;;;4998242;28;20026;-60
2022/03/16 07:00:13;;;;;;;2.60;1.40;;;21.10;43.90;;;;;;5002077;28;20038;-62
2022/03/16 07:02:56;;;;;;;3.78;1.40;;;21.30;43.80;;;;;;5001866;28;20160;-64
2022/03/16 07:05:26;;;;;;;3.30;1.60;;;21.50;43.80;;;;;;5003770;28;20087;-64
2022/03/16 07:07:51;;;;;;;4.30;1.60;;;21.60;43.40;;;;;;5003150;28;20066;-64
2022/03/16 07:10:18;;;;;;;3.58;1.60;;;21.80;43.30;;;;;;5002575;28;20443;-64
2022/03/16 07:12:43;;;;;;;3.53;1.50;;;21.90;43.10;;;;;;5001947;28;20022;-66
2022/03/16 07:15:09;;;;;;;4.78;1.50;;;22.00;43.20;;;;;;5000584;28;20050;-64
2022/03/16 07:17:35;;;;;;;4.57;1.55;;;22.10;42.50;;;;;;5001743;28;20095;-62
2022/03/16 07:20:03;;;;;;;4.07;1.38;;;22.20;42.40;;;;;;5003055;28;20029;-64
2022/03/16 07:22:29;;;;;;;3.25;1.50;;;22.30;42.20;;;;;;5001598;28;20080;-66
2022/03/16 07:24:54;;;;;;;2.35;1.17;;;22.40;42.10;;;;;;5000526;28;20038;-64
2022/03/16 07:27:20;;;;;;;1.80;1.00;;;22.40;41.70;;;;;;5001728;28;20069;-66
2022/03/16 07:29:45;;;;;;;2.97;1.30;;;22.40;41.60;;;;;;5002415;28;20591;-63
2022/03/16 07:32:11;;;;;;;2.92;1.30;;;22.40;42.20;;;;;;5002699;28;20125;-63
2022/03/16 07:34:37;;;;;;;4.43;1.33;;;22.40;41.70;;;;;;5005267;28;20030;-62
2022/03/16 07:37:02;;;;;;;1.80;1.08;;;22.40;41.70;;;;;;5003852;28;20037;-65
2022/03/16 07:39:28;;;;;;;3.60;1.30;;;22.40;41.70;;;;;;5000101;28;20052;-63
2022/03/16 07:41:54;;;;;;;2.85;1.10;;;22.40;41.80;;;;;;5001153;28;20084;-63
2022/03/16 07:44:19;;;;;;;2.65;1.23;;;22.40;41.70;;;;;;5003385;28;20045;-62
2022/03/16 07:46:45;;;;;;;2.72;1.13;;;22.40;41.60;;;;;;5001137;28;20420;-65
2022/03/16 07:49:10;;;;;;;2.90;1.40;;;22.40;41.70;;;;;;5002292;28;20132;-60
2022/03/16 07:51:36;;;;;;;2.00;1.10;;;22.40;41.70;;;;;;5003151;28;20108;-63
2022/03/16 07:54:02;;;;;;;2.47;1.20;;;22.40;41.70;;;;;;5000009;28;20117;-61
2022/03/16 07:56:28;;;;;;;2.97;1.45;;;22.50;41.70;;;;;;5000118;28;20080;-65
2022/03/16 07:58:54;;;;;;;3.35;1.70;;;22.50;41.60;;;;;;5006153;28;20290;-63
2022/03/16 08:01:20;;;;;;;3.03;1.30;;;22.50;41.50;;;;;;5001332;28;20045;-66
2022/03/16 08:03:47;;;;;;;3.50;1.42;;;22.50;41.50;;;;;;4999717;28;20026;-63
2022/03/16 08:06:12;;;;;;;3.55;1.17;;;22.50;41.50;;;;;;5006355;28;20034;-66
2022/03/16 08:08:39;;;;;;;3.30;1.27;;;22.50;41.50;;;;;;4999553;28;20052;-65
2022/03/16 08:11:06;;;;;;;1.77;1.00;;;22.50;41.60;;;;;;4997886;28;20467;-61
2022/03/16 08:13:32;;;;;;;3.15;1.20;;;22.50;41.60;;;;;;5003099;28;20022;-63
2022/03/16 08:15:58;;;;;;;3.38;1.10;;;22.50;41.60;;;;;;5004604;28;20037;-65
2022/03/16 08:18:24;;;;;;;2.13;1.10;;;22.50;41.60;;;;;;5000933;28;20136;-61
2022/03/16 08:20:49;;;;;;;2.80;1.35;;;22.60;41.60;;;;;;5000184;28;20038;-63
2022/03/16 08:23:15;;;;;;;2.20;1.10;;;22.60;41.60;;;;;;4997846;28;20030;-64
2022/03/16 08:25:40;;;;;;;2.45;1.17;;;22.60;41.60;;;;;;5000596;28;20397;-65
2022/03/16 08:28:06;;;;;;;2.10;1.00;;;22.60;41.60;;;;;;4999850;28;20026;-66
2022/03/16 08:30:34;;;;;;;3.17;1.20;;;22.60;41.60;;;;;;4998819;28;20414;-64
2022/03/16 08:33:00;;;;;;;2.95;1.30;;;22.70;41.50;;;;;;4999401;28;20588;-64
2022/03/16 08:35:26;;;;;;;2.10;1.10;;;22.70;41.50;;;;;;5017008;28;20573;-63
2022/03/16 08:37:51;;;;;;;1.92;1.02;;;22.70;41.50;;;;;;4999941;28;20035;-65
2022/03/16 08:40:17;;;;;;;3.00;1.10;;;22.70;41.50;;;;;;4999765;28;20065;-63
2022/03/16 08:42:43;;;;;;;2.78;1.23;;;22.70;41.50;;;;;;4999579;28;20678;-66
2022/03/16 08:45:10;;;;;;;2.17;1.02;;;22.70;41.40;;;;;;5002946;28;20080;-66
2022/03/16 08:47:37;;;;;;;2.25;1.02;;;22.80;41.50;;;;;;5000662;28;20029;-63
2022/03/16 08:50:03;;;;;;;2.63;1.17;;;22.80;41.60;;;;;;4999719;28;20030;-64
2022/03/16 08:52:28;;;;;;;2.10;1.30;;;22.80;41.50;;;;;;5006110;28;20318;-61
2022/03/16 08:54:54;;;;;;;2.97;1.05;;;22.80;41.50;;;;;;5003222;28;20037;-64
2022/03/16 08:57:23;;;;;;;2.25;1.10;;;22.80;41.40;;;;;;5005141;28;20041;-62
2022/03/16 08:59:49;;;;;;;2.17;1.00;;;22.80;41.30;;;;;;5004050;28;20033;-66
2022/03/16 09:02:15;;;;;;;2.30;1.20;;;22.90;41.40;;;;;;5004782;28;20369;-66
2022/03/16 09:04:41;;;;;;;2.33;1.00;;;22.90;41.30;;;;;;5002810;28;20029;-64
2022/03/16 09:07:07;;;;;;;2.35;1.35;;;22.90;41.30;;;;;;5008208;28;20032;-62
2022/03/16 09:09:33;;;;;;;2.70;1.25;;;22.90;41.20;;;;;;5005369;28;20382;-64
2022/03/16 09:12:00;;;;;;;2.35;1.10;;;22.90;41.20;;;;;;5002592;28;20471;-64
2022/03/16 09:14:26;;;;;;;2.00;1.10;;;22.90;41.30;;;;;;5001224;28;20026;-64
2022/03/16 09:16:52;;;;;;;1.63;1.08;;;22.90;41.20;;;;;;5005925;28;20572;-64
2022/03/16 09:19:21;;;;;;;2.55;1.10;;;23.00;41.30;;;;;;5003584;28;20045;-64
2022/03/16 09:21:50;;;;;;;1.65;1.00;;;23.00;41.20;;;;;;5007917;28;20537;-63
2022/03/16 09:24:17;;;;;;;2.03;1.02;;;23.00;41.10;;;;;;4998486;28;20101;-64
2022/03/16 09:26:44;;;;;;;2.90;1.05;;;23.00;41.80;;;;;;4997766;28;20044;-62
2022/03/16 09:29:11;;;;;;;3.72;1.20;;;23.10;41.40;;;;;;5003738;28;22059;-66
2022/03/16 09:31:37;;;;;;;1.90;1.00;;;23.10;41.20;;;;;;5002218;28;20041;-63
2022/03/16 09:34:05;;;;;;;1.42;1.00;;;23.10;41.20;;;;;;5005238;28;20048;-64
2022/03/16 09:36:35;;;;;;;2.90;1.50;;;23.10;41.60;;;;;;5003541;28;20034;-61
2022/03/16 09:39:00;;;;;;;2.85;1.40;;;23.10;41.00;;;;;;5001173;28;20046;-64
2022/03/16 09:41:27;;;;;;;3.58;1.52;;;23.20;41.20;;;;;;5003599;28;20025;-64
2022/03/16 09:43:54;;;;;;;3.55;1.60;;;23.20;40.50;;;;;;5002022;28;20096;-64
2022/03/16 09:46:28;;;;;;;3.30;1.50;;;23.20;40.50;;;;;;5000113;28;20640;-62
2022/03/16 09:48:54;;;;;;;4.28;1.70;;;23.20;40.30;;;;;;5005465;28;20140;-66
2022/03/16 09:51:20;;;;;;;3.95;1.40;;;23.20;40.30;;;;;;5006768;28;20843;-64
2022/03/16 09:53:46;;;;;;;2.70;1.40;;;23.20;40.20;;;;;;5000076;28;20134;-62
2022/03/16 09:56:12;;;;;;;2.28;1.33;;;23.20;40.20;;;;;;5003972;28;20030;-64
2022/03/16 09:58:38;;;;;;;3.28;1.50;;;23.30;40.30;;;;;;4998851;28;20037;-65
2022/03/16 10:01:05;;;;;;;3.65;1.70;;;23.30;40.30;;;;;;5002831;28;20593;-61
2022/03/16 10:03:31;;;;;;;2.63;1.38;;;23.30;40.30;;;;;;5015241;28;20022;-63
2022/03/16 10:05:58;;;;;;;3.17;1.40;;;23.20;40.20;;;;;;5001831;28;20042;-64
2022/03/16 10:08:27;;;;;;;3.75;1.48;;;23.20;40.30;;;;;;5002250;28;20026;-63
2022/03/16 10:13:53;;;;;;;3.38;1.45;;;23.30;40.30;;;;;;5002956;28;20141;-63
2022/03/16 10:16:19;;;;;;;2.97;1.42;;;23.30;40.30;;;;;;5003352;28;20431;-63
2022/03/16 10:18:56;;;;;;;3.15;1.42;;;23.30;40.30;;;;;;5005280;28;20048;-67
2022/03/16 10:21:23;;;;;;;2.85;1.40;;;23.30;40.20;;;;;;5002482;28;20014;-63
2022/03/16 10:23:49;;;;;;;2.75;1.40;;;23.30;40.20;;;;;;5003424;28;20225;-65
2022/03/16 10:26:17;;;;;;;2.90;1.40;;;23.30;40.20;;;;;;5001402;28;20018;-64
2022/03/16 10:28:46;;;;;;;3.03;1.40;;;23.40;40.20;;;;;;5003592;28;20041;-64
2022/03/16 10:31:13;;;;;;;3.03;1.40;;;23.30;40.20;;;;;;5002641;28;20041;-66
2022/03/16 10:33:44;;;;;;;2.70;1.33;;;23.40;40.30;;;;;;5000198;28;20105;-63
2022/03/16 10:36:12;;;;;;;2.60;1.38;;;23.40;40.30;;;;;;5003697;28;20030;-62
2022/03/16 10:38:39;;;;;;;2.38;1.25;;;23.40;40.30;;;;;;5001809;28;20745;-66
2022/03/16 10:46:46;;;;;;;2.53;1.40;;;23.40;40.20;;;;;;5009653;28;20492;-62
2022/03/16 10:49:16;;;;;;;2.53;1.25;;;23.40;40.20;;;;;;4998486;28;20446;-61
2022/03/16 10:51:43;;;;;;;2.42;1.45;;;23.40;40.20;;;;;;5003786;28;20030;-65
2022/03/16 10:54:08;;;;;;;3.40;1.63;;;23.40;40.30;;;;;;4999669;28;20037;-61
2022/03/16 10:56:38;;;;;;;2.97;1.30;;;23.50;40.30;;;;;;4996871;28;20421;-62
2022/03/16 10:59:04;;;;;;;2.95;1.50;;;23.50;40.20;;;;;;4993241;28;20036;-64
2022/03/16 11:01:33;;;;;;;2.60;1.27;;;23.50;40.30;;;;;;4991795;28;20041;-64
2022/03/16 11:04:01;;;;;;;2.42;1.30;;;23.50;40.20;;;;;;4995966;28;20116;-62
2022/03/16 11:06:27;;;;;;;3.45;1.30;;;23.50;40.30;;;;;;5000873;28;20018;-64
2022/03/16 11:08:53;;;;;;;2.17;1.13;;;23.50;40.30;;;;;;5000023;28;20033;-62
2022/03/16 11:14:04;;;;;;;3.47;1.50;;;23.50;40.20;;;;;;4997262;28;20072;-63
2022/03/16 11:16:31;;;;;;;2.80;1.50;;;23.50;40.20;;;;;;4997396;28;20048;-66
2022/03/16 11:19:04;;;;;;;2.30;1.42;;;23.50;40.20;;;;;;4990322;28;20026;-64
2022/03/16 11:21:44;;;;;;;2.25;1.20;;;23.50;40.20;;;;;;4996452;28;20478;-66
2022/03/16 11:24:16;;;;;;;2.70;1.30;;;23.50;40.10;;;;;;4997489;28;20034;-64
2022/03/16 11:26:44;;;;;;;2.95;1.70;;;23.50;40.70;;;;;;4999515;28;20035;-66
2022/03/16 11:29:28;;;;;;;2.43;1.43;;;23.50;40.10;;;;;;4993025;28;20659;-62
2022/03/16 11:32:15;;;;;;;3.08;1.35;;;23.50;40.10;;;;;;4994431;28;20049;-66
2022/03/16 11:35:08;;;;;;;2.60;1.35;;;23.50;40.10;;;;;;4998043;28;20117;-63
2022/03/16 11:37:49;;;;;;;2.70;1.40;;;23.50;40.10;;;;;;4995670;28;20537;-63
2022/03/16 11:40:20;;;;;;;2.10;1.30;;;23.50;40.10;;;;;;4992519;28;20494;-64
2022/03/16 11:43:04;;;;;;;2.45;1.30;;;23.50;40.10;;;;;;4996141;28;20120;-61
2022/03/16 11:45:50;;;;;;;1.73;1.20;;;23.50;40.10;;;;;;4999320;28;20053;-61
2022/03/16 11:48:37;;;;;;;2.03;1.10;;;23.60;40.10;;;;;;5003857;28;20026;-65
2022/03/16 11:51:08;;;;;;;2.10;1.20;;;23.60;40.10;;;;;;4997405;28;20121;-66
2022/03/16 11:53:57;;;;;;;2.00;1.13;;;23.60;40.10;;;;;;4998072;28;20550;-64
2022/03/16 11:56:36;;;;;;;;;;;23.60;40.10;;;;;;5003051;28;20021;-61
2022/03/16 11:59:09;;;;;;;2.10;1.25;;;23.60;40.20;;;;;;5000605;28;19913;-65
2022/03/16 12:01:39;;;;;;;1.88;1.15;;;23.70;40.10;;;;;;4999331;28;20033;-63
2022/03/16 12:04:23;;;;;;;;;;;23.70;40.20;;;;;;5000828;28;20099;-65
2022/03/16 12:07:03;;;;;;;2.15;1.30;;;23.70;40.20;;;;;;4991081;28;20361;-61
2022/03/16 12:09:44;;;;;;;2.00;1.20;;;23.70;40.20;;;;;;4996700;28;20594;-62
2022/03/16 12:15:11;;;;;;;2.60;1.40;;;23.70;40.20;;;;;;4999128;28;20092;-62
2022/03/16 12:17:37;;;;;;;2.50;1.10;;;23.70;40.30;;;;;;5002810;28;20474;-62
2022/03/16 12:20:10;;;;;;;2.20;1.27;;;23.70;40.50;;;;;;5017020;28;20034;-66
2022/03/16 12:22:37;;;;;;;2.65;1.20;;;23.70;40.40;;;;;;4997885;28;20068;-67
2022/03/16 12:25:39;;;;;;;1.80;1.00;;;23.70;40.40;;;;;;4996769;28;20045;-65
2022/03/16 12:30:58;;;;;;;2.47;1.20;;;23.80;40.40;;;;;;4994471;28;20516;-67
2022/03/16 12:33:31;;;;;;;1.65;0.93;;;23.80;40.50;;;;;;4996689;28;20026;-63
2022/03/16 12:36:00;;;;;;;2.10;1.20;;;23.80;40.50;;;;;;4996421;28;20022;-66
2022/03/16 12:38:29;;;;;;;2.70;1.40;;;23.80;40.50;;;;;;5008922;28;20446;-63
2022/03/16 12:43:49;;;;;;;2.40;1.52;;;23.90;40.70;;;;;;4996032;28;20672;-67
2022/03/16 12:46:23;;;;;;;1.58;1.10;;;23.90;40.50;;;;;;5000891;28;20034;-63
2022/03/16 12:48:54;;;;;;;2.00;1.15;;;23.90;40.50;;;;;;4996665;28;20030;-62
2022/03/16 12:51:43;;;;;;;1.95;1.20;;;23.90;40.50;;;;;;4997265;28;20355;-62
2022/03/16 12:54:10;;;;;;;2.22;1.20;;;23.90;40.50;;;;;;4994877;28;20040;-64
2022/03/16 12:56:40;;;;;;;2.33;1.30;;;23.90;40.50;;;;;;4989636;28;20038;-62
2022/03/16 12:59:08;;;;;;;1.65;1.13;;;23.90;40.50;;;;;;4997999;28;20496;-65
2022/03/16 13:01:33;;;;;;;2.20;1.13;;;23.90;40.50;;;;;;4997355;28;20045;-64
2022/03/16 13:04:01;;;;;;;2.05;1.20;;;23.90;40.60;;;;;;4996894;28;20034;-64
2022/03/16 13:06:33;;;;;;;3.00;1.23;;;23.90;40.60;;;;;;4996892;28;20053;-64
2022/03/16 13:09:02;;;;;;;2.42;1.27;;;24.00;40.60;;;;;;5000186;28;20034;-65